TimeCDT,TemperatureF,Dew PointF,Humidity,Sea Level PressureIn,VisibilityMPH,Wind Direction,Wind SpeedMPH,Gust SpeedMPH,PrecipitationIn,Events,Conditions,WindDirDegrees,DateUTC
12:15 AM,44.6,32.0,61,29.82,10.0,North,-9999.0,-,N/A,,Clear,0,2013-04-12 05:15:00
12:35 AM,42.8,35.6,76,29.83,10.0,West,3.5,-,N/A,,Clear,280,2013-04-12 05:35:00
12:55 AM,42.8,35.6,76,29.83,10.0,West,3.5,-,N/A,,Clear,260,2013-04-12 05:55:00
1:15 AM,42.8,35.6,76,29.82,10.0,WSW,3.5,-,N/A,,Clear,250,2013-04-12 06:15:00
1:35 AM,41.0,35.6,81,29.82,10.0,WSW,4.6,-,N/A,,Clear,240,2013-04-12 06:35:00
1:55 AM,41.0,39.2,93,29.83,10.0,WSW,4.6,-,N/A,,Clear,250,2013-04-12 06:55:00
2:15 AM,41.0,37.4,87,29.83,10.0,SW,4.6,-,N/A,,Clear,230,2013-04-12 07:15:00
2:35 AM,41.0,37.4,87,29.82,10.0,SW,5.8,-,N/A,,Clear,220,2013-04-12 07:35:00
2:55 AM,41.0,37.4,87,29.82,10.0,SSW,6.9,-,N/A,,Clear,210,2013-04-12 07:55:00
3:15 AM,41.0,35.6,81,29.82,10.0,SW,6.9,-,N/A,,Clear,220,2013-04-12 08:15:00
3:35 AM,41.0,37.4,87,29.82,10.0,SSW,5.8,-,N/A,,Clear,200,2013-04-12 08:35:00
3:55 AM,41.0,39.2,93,29.83,10.0,SW,5.8,-,N/A,,Clear,220,2013-04-12 08:55:00
4:15 AM,41.0,37.4,87,29.84,10.0,SW,5.8,-,N/A,,Clear,220,2013-04-12 09:15:00
4:35 AM,41.0,37.4,87,29.84,10.0,SSW,5.8,-,N/A,,Clear,210,2013-04-12 09:35:00
4:55 AM,41.0,39.2,93,29.84,10.0,SSW,6.9,-,N/A,,Clear,210,2013-04-12 09:55:00
5:15 AM,41.0,37.4,87,29.84,10.0,SW,6.9,-,N/A,,Clear,220,2013-04-12 10:15:00
5:35 AM,41.0,37.4,87,29.84,10.0,SSW,9.2,-,N/A,,Clear,200,2013-04-12 10:35:00
5:55 AM,41.0,37.4,87,29.84,10.0,SSW,5.8,-,N/A,,Clear,200,2013-04-12 10:55:00
6:15 AM,41.0,37.4,87,29.85,10.0,SSW,9.2,-,N/A,,Clear,210,2013-04-12 11:15:00
6:35 AM,41.0,37.4,87,29.86,10.0,SSW,9.2,-,N/A,,Clear,210,2013-04-12 11:35:00
6:55 AM,41.0,37.4,87,29.87,10.0,SW,6.9,-,N/A,,Clear,220,2013-04-12 11:55:00
7:15 AM,42.8,37.4,81,29.87,10.0,SW,6.9,-,N/A,,Clear,220,2013-04-12 12:15:00
7:35 AM,44.6,37.4,76,29.88,10.0,SW,10.4,-,N/A,,Clear,230,2013-04-12 12:35:00
7:55 AM,46.4,39.2,76,29.88,10.0,WSW,10.4,-,N/A,,Clear,240,2013-04-12 12:55:00
8:15 AM,46.4,39.2,76,29.89,10.0,SW,13.8,-,N/A,,Clear,230,2013-04-12 13:15:00
8:55 AM,48.2,37.4,66,29.90,10.0,West,13.8,-,N/A,,Clear,260,2013-04-12 13:55:00
9:15 AM,50.0,37.4,62,29.90,10.0,West,15.0,-,N/A,,Clear,260,2013-04-12 14:15:00
9:35 AM,50.0,37.4,62,29.90,10.0,West,15.0,-,N/A,,Clear,270,2013-04-12 14:35:00
9:55 AM,50.0,37.4,62,29.90,10.0,WSW,16.1,-,N/A,,Clear,240,2013-04-12 14:55:00
10:15 AM,51.8,37.4,58,29.90,10.0,WSW,17.3,23.0,N/A,,Clear,250,2013-04-12 15:15:00
10:35 AM,53.6,37.4,54,29.91,10.0,WSW,16.1,21.9,N/A,,Clear,250,2013-04-12 15:35:00
10:55 AM,53.6,37.4,54,29.91,10.0,WSW,20.7,25.3,N/A,,Clear,250,2013-04-12 15:55:00
11:15 AM,55.4,37.4,51,29.91,10.0,West,21.9,-,N/A,,Clear,260,2013-04-12 16:15:00
11:55 AM,55.4,39.2,54,29.91,10.0,West,18.4,-,N/A,,Clear,270,2013-04-12 16:55:00
12:35 PM,57.2,39.2,51,29.90,10.0,West,20.7,25.3,N/A,,Clear,260,2013-04-12 17:35:00
1:15 PM,59.0,39.2,48,29.90,10.0,West,24.2,28.8,N/A,,Clear,260,2013-04-12 18:15:00
1:35 PM,59.0,37.4,45,29.91,10.0,West,20.7,28.8,N/A,,Clear,270,2013-04-12 18:35:00
1:55 PM,59.0,35.6,42,29.91,10.0,West,20.7,28.8,N/A,,Clear,270,2013-04-12 18:55:00
2:35 PM,60.8,39.2,45,29.90,10.0,West,19.6,23.0,N/A,,Clear,260,2013-04-12 19:35:00
2:55 PM,60.8,35.6,39,29.90,10.0,West,12.7,18.4,N/A,,Clear,280,2013-04-12 19:55:00
3:15 PM,60.8,35.6,39,29.90,10.0,West,15.0,23.0,N/A,,Clear,260,2013-04-12 20:15:00
3:35 PM,62.6,37.4,39,29.90,10.0,West,17.3,24.2,N/A,,Unknown,270,2013-04-12 20:35:00
4:15 PM,62.6,35.6,37,29.89,10.0,West,19.6,-,N/A,,Unknown,280,2013-04-12 21:15:00
4:35 PM,62.6,35.6,37,29.89,10.0,West,19.6,25.3,N/A,,Unknown,280,2013-04-12 21:35:00
4:55 PM,62.6,37.4,39,29.90,10.0,West,16.1,-,N/A,,Clear,260,2013-04-12 21:55:00
5:15 PM,62.6,35.6,37,29.90,10.0,WNW,15.0,21.9,N/A,,Clear,290,2013-04-12 22:15:00
5:35 PM,62.6,35.6,37,29.90,10.0,West,18.4,23.0,N/A,,Clear,280,2013-04-12 22:35:00
5:55 PM,62.6,37.4,39,29.90,10.0,WNW,17.3,23.0,N/A,,Clear,300,2013-04-12 22:55:00
6:15 PM,60.8,37.4,42,29.91,10.0,WNW,13.8,-,N/A,,Clear,300,2013-04-12 23:15:00
6:35 PM,59.0,37.4,45,29.91,10.0,WNW,13.8,-,N/A,,Clear,290,2013-04-12 23:35:00
6:55 PM,59.0,39.2,48,29.92,10.0,WNW,10.4,-,N/A,,Clear,300,2013-04-12 23:55:00
7:15 PM,57.2,35.6,44,29.92,10.0,WNW,10.4,-,N/A,,Clear,290,2013-04-13 00:15:00
7:35 PM,55.4,37.4,51,29.93,10.0,NW,6.9,-,N/A,,Clear,320,2013-04-13 00:35:00
7:55 PM,55.4,37.4,51,29.94,10.0,NW,6.9,-,N/A,,Clear,320,2013-04-13 00:55:00
8:15 PM,55.4,35.6,47,29.95,10.0,NW,6.9,-,N/A,,Clear,310,2013-04-13 01:15:00
8:55 PM,53.6,37.4,54,29.97,10.0,NNW,8.1,-,N/A,,Clear,330,2013-04-13 01:55:00
9:15 PM,53.6,37.4,54,29.98,10.0,NNW,6.9,-,N/A,,Clear,340,2013-04-13 02:15:00
9:35 PM,51.8,37.4,58,29.99,10.0,NNW,8.1,-,N/A,,Clear,330,2013-04-13 02:35:00
9:55 PM,50.0,37.4,62,30.00,10.0,North,5.8,-,N/A,,Clear,350,2013-04-13 02:55:00
10:15 PM,50.0,35.6,58,30.01,10.0,NNW,9.2,-,N/A,,Clear,340,2013-04-13 03:15:00
10:35 PM,50.0,37.4,62,30.02,10.0,NNW,6.9,-,N/A,,Clear,340,2013-04-13 03:35:00
10:55 PM,48.2,35.6,62,30.02,10.0,NNW,4.6,-,N/A,,Clear,340,2013-04-13 03:55:00
11:15 PM,48.2,35.6,62,30.03,10.0,NNW,5.8,-,N/A,,Clear,330,2013-04-13 04:15:00
11:35 PM,48.2,35.6,62,30.04,10.0,North,6.9,-,N/A,,Clear,360,2013-04-13 04:35:00
11:55 PM,48.2,33.8,58,30.05,10.0,North,8.1,-,N/A,,Clear,360,2013-04-13 04:55:00